createdAt,value
2023-05-11T00:02:27.327Z,30.305
2023-05-11T00:17:29.183Z,30.345
2023-05-11T00:32:30.898Z,30.311
2023-05-11T00:47:32.651Z,30.098
2023-05-11T01:02:34.446Z,29.497
2023-05-11T01:17:36.235Z,29.128
2023-05-11T01:32:39.577Z,29.6
2023-05-11T01:47:43.339Z,29.491
2023-05-11T02:02:45.279Z,29.41
2023-05-11T02:17:47.126Z,29.683
2023-05-11T02:32:48.884Z,30.371
2023-05-11T02:47:50.739Z,29.755
2023-05-11T03:02:52.529Z,29.283
2023-05-11T03:17:54.385Z,29.462
2023-05-11T03:32:56.165Z,29.637
2023-05-11T03:47:57.930Z,29.07
2023-05-11T04:02:59.779Z,28.789
2023-05-11T04:18:01.641Z,28.769
2023-05-11T04:33:03.387Z,28.543
2023-05-11T04:48:05.118Z,29
2023-05-11T05:03:06.881Z,28.394
2023-05-11T05:18:08.653Z,28.372
2023-05-11T05:33:10.449Z,28.395
2023-05-11T05:48:12.124Z,28.274
2023-05-11T06:03:13.848Z,28.341
2023-05-11T06:18:15.636Z,27.983
2023-05-11T06:33:17.341Z,27.803
2023-05-11T06:48:18.985Z,28.24
2023-05-11T07:03:20.619Z,28.163
2023-05-11T07:18:22.280Z,28.085
2023-05-11T07:33:23.934Z,28.204
2023-05-11T07:48:25.586Z,28.082
2023-05-11T08:03:27.372Z,27.58
2023-05-11T08:18:29.175Z,27.596
2023-05-11T08:33:37.763Z,28.001
2023-05-11T08:48:40.210Z,28.291
2023-05-11T09:03:41.920Z,28.335
2023-05-11T09:18:43.613Z,28.185
2023-05-11T09:33:45.351Z,28.139
2023-05-11T09:48:47.059Z,28.164
2023-05-11T10:03:48.969Z,27.736
2023-05-11T10:18:50.849Z,27.678
2023-05-11T10:33:52.581Z,28.003
2023-05-11T10:48:54.280Z,27.708
2023-05-11T11:03:55.973Z,27.952
2023-05-11T11:18:57.701Z,27.928
2023-05-11T11:33:59.491Z,27.971
2023-05-11T11:49:01.210Z,27.732
2023-05-11T12:04:03.180Z,27.776
2023-05-11T12:19:05.078Z,27.934
2023-05-11T12:34:06.801Z,27.738
2023-05-11T12:49:08.539Z,28.003
2023-05-11T13:04:10.248Z,27.863
2023-05-11T13:19:12.000Z,28.222
2023-05-11T13:34:13.745Z,28.494
2023-05-11T13:49:15.390Z,27.784
2023-05-11T14:04:17.046Z,27.783
2023-05-11T14:19:18.925Z,27.75
2023-05-11T14:34:20.620Z,27.78
2023-05-11T14:49:22.257Z,27.954
2023-05-11T15:04:23.976Z,28.053
2023-05-11T15:19:25.661Z,27.71
2023-05-11T15:34:27.353Z,28.173
2023-05-11T15:49:29.326Z,28.231
2023-05-11T16:04:31.021Z,28.287
2023-05-11T16:19:32.758Z,28.225
2023-05-11T16:34:34.440Z,28.247
2023-05-11T16:49:36.136Z,28.359
2023-05-11T17:04:37.843Z,28.47
2023-05-11T17:19:39.520Z,28.822
2023-05-11T17:34:41.242Z,28.915
2023-05-11T17:49:42.972Z,28.707
2023-05-11T18:04:44.668Z,28.798
2023-05-11T18:19:46.375Z,30.752
2023-05-11T18:34:48.141Z,31.238
2023-05-11T18:49:49.853Z,30.616
2023-05-11T19:04:51.615Z,30.592
2023-05-11T19:19:53.324Z,30.652
2023-05-11T19:34:55.116Z,30.658
2023-05-11T19:49:56.855Z,30.877
2023-05-11T20:04:58.596Z,30.781
2023-05-11T20:20:00.334Z,30.814
2023-05-11T20:35:02.165Z,30.197
2023-05-11T20:50:03.941Z,30.324
2023-05-11T21:05:05.695Z,30.381
2023-05-11T21:20:07.385Z,30.303
2023-05-11T21:35:09.082Z,30.345
2023-05-11T21:50:10.785Z,30.431
2023-05-11T22:05:12.474Z,29.732
2023-05-11T22:20:14.172Z,30.13
2023-05-11T22:35:15.959Z,28.761
2023-05-11T22:50:17.900Z,29.302
2023-05-11T23:05:19.771Z,28.458
2023-05-11T23:20:21.650Z,28.185
2023-05-11T23:35:23.513Z,27.341
2023-05-11T23:50:25.208Z,26.447
